Time;durP1;ratioP1;P1;durP2;ratioP2;P2;SDS_P1;SDS_P2;PMS_P1;PMS_P2;Temp;Humidity;BMP_temperature;BMP_pressure;BME280_temperature;BME280_humidity;BME280_pressure;Samples;Min_cycle;Max_cycle;Signal;HPM_P1;HPM_P2
2023/09/20 00:01:02;;;;;;;5.80;2.53;;;;;;;16.31;100.00;99947.94;4992157;28;20032;-71
2023/09/20 00:03:28;;;;;;;10.30;3.20;;;;;;;16.29;100.00;99928.47;4994054;28;20391;-73
2023/09/20 00:05:54;;;;;;;7.35;2.42;;;;;;;16.27;100.00;99952.09;4989675;28;20742;-71
2023/09/20 00:08:19;;;;;;;4.25;2.55;;;;;;;16.28;100.00;99951.09;4990551;28;20030;-71
2023/09/20 00:10:45;;;;;;;7.03;2.47;;;;;;;16.30;100.00;99935.53;4984113;28;20080;-71
2023/09/20 00:13:14;;;;;;;6.95;2.15;;;;;;;16.32;100.00;99943.38;5007650;28;20053;-71
2023/09/20 00:15:43;;;;;;;17.30;3.45;;;;;;;16.35;100.00;99946.47;5000985;28;20026;-73
2023/09/20 00:18:09;;;;;;;4.03;2.40;;;;;;;16.37;100.00;99935.47;4993756;28;20041;-71
2023/09/20 00:20:36;;;;;;;9.40;2.92;;;;;;;16.38;100.00;99927.16;5002317;28;20033;-71
2023/09/20 00:23:02;;;;;;;5.53;2.35;;;;;;;16.41;100.00;99913.28;4992854;28;20409;-71
2023/09/20 00:25:28;;;;;;;;;;;;;;;16.35;100.00;99914.13;5007853;28;20069;-73
2023/09/20 00:27:53;;;;;;;8.32;3.05;;;;;;;16.42;100.00;99901.44;5000182;28;19959;-72
2023/09/20 00:30:21;;;;;;;7.10;2.47;;;;;;;16.29;100.00;99895.34;5006346;28;20045;-72
2023/09/20 00:32:47;;;;;;;8.30;2.33;;;;;;;16.36;100.00;99885.31;5002842;28;20134;-75
2023/09/20 00:35:17;;;;;;;10.17;3.57;;;;;;;16.40;100.00;99891.94;4989332;28;20113;-74
2023/09/20 00:37:47;;;;;;;8.20;2.65;;;;;;;16.36;100.00;99867.28;4996879;28;20512;-74
2023/09/20 00:40:18;;;;;;;8.68;2.22;;;;;;;16.34;100.00;99880.19;5001060;28;20049;-74
2023/09/20 00:42:46;;;;;;;10.60;2.63;;;;;;;16.42;100.00;99877.19;4989877;28;20034;-74
2023/09/20 00:45:15;;;;;;;7.70;2.50;;;;;;;16.43;100.00;99886.91;4990498;28;20025;-73
2023/09/20 00:47:51;;;;;;;4.72;2.40;;;;;;;16.34;100.00;99868.56;5000028;28;20124;-74
2023/09/20 00:50:17;;;;;;;8.32;2.15;;;;;;;16.46;100.00;99870.31;4993044;28;20416;-74
2023/09/20 00:52:46;;;;;;;8.82;3.10;;;;;;;16.50;100.00;99864.47;5003582;28;20045;-75
2023/09/20 00:55:15;;;;;;;3.83;1.95;;;;;;;16.48;100.00;99828.84;4997861;28;20030;-74
2023/09/20 00:57:43;;;;;;;7.65;2.47;;;;;;;16.56;100.00;99820.47;4995323;28;20515;-74
2023/09/20 01:00:21;;;;;;;6.72;2.05;;;;;;;16.53;100.00;99823.59;5003089;28;20457;-75
2023/09/20 01:02:52;;;;;;;7.80;2.72;;;;;;;16.56;100.00;99810.53;4989670;28;20081;-72
2023/09/20 01:05:21;;;;;;;4.53;2.20;;;;;;;16.60;100.00;99813.56;4994702;28;20925;-75
2023/09/20 01:07:51;;;;;;;7.15;2.70;;;;;;;16.64;100.00;99802.13;4989237;28;20944;-72
2023/09/20 01:10:22;;;;;;;10.43;2.00;;;;;;;16.66;100.00;99804.59;4992583;28;20618;-71
2023/09/20 01:12:48;;;;;;;5.88;2.03;;;;;;;16.65;100.00;99803.78;5000586;28;20112;-72
2023/09/20 01:15:13;;;;;;;14.82;3.72;;;;;;;16.67;100.00;99806.25;4996524;28;20093;-72
2023/09/20 01:17:46;;;;;;;5.90;2.10;;;;;;;16.71;100.00;99788.56;4997096;28;20048;-72
2023/09/20 01:20:12;;;;;;;10.27;2.00;;;;;;;16.70;100.00;99783.44;4982911;28;20562;-74
2023/09/20 01:22:38;;;;;;;;;;;;;;;16.72;100.00;99786.72;4983798;28;20516;-74
2023/09/20 01:25:09;;;;;;;5.85;1.85;;;;;;;16.73;100.00;99778.41;4987945;28;19918;-73
2023/09/20 01:27:35;;;;;;;10.02;2.60;;;;;;;16.80;100.00;99763.00;4999272;28;20038;-73
2023/09/20 01:30:01;;;;;;;6.68;2.00;;;;;;;16.77;100.00;99749.94;4995583;28;20649;-71
2023/09/20 01:32:27;;;;;;;7.72;2.22;;;;;;;16.82;100.00;99776.25;4994520;28;20030;-75
2023/09/20 01:34:53;;;;;;;9.17;2.37;;;;;;;16.70;100.00;99772.66;4998495;28;20089;-76
2023/09/20 01:37:19;;;;;;;7.85;2.00;;;;;;;16.81;100.00;99775.44;4996519;28;20068;-74
2023/09/20 01:39:44;;;;;;;5.30;2.30;;;;;;;16.85;100.00;99755.03;4987328;28;20517;-74
2023/09/20 01:42:10;;;;;;;7.07;2.00;;;;;;;16.95;100.00;99761.75;4997476;28;20026;-74
2023/09/20 01:44:37;;;;;;;7.87;1.90;;;;;;;16.85;100.00;99746.94;5004343;28;20034;-72
2023/09/20 01:47:04;;;;;;;4.35;1.73;;;;;;;16.89;100.00;99728.47;5001731;28;20045;-73
2023/09/20 01:49:32;;;;;;;6.85;2.22;;;;;;;16.95;100.00;99734.81;4999396;28;20128;-71
2023/09/20 01:51:58;;;;;;;5.40;1.90;;;;;;;16.98;100.00;99737.88;5002905;28;20038;-71
2023/09/20 01:54:28;;;;;;;5.65;1.98;;;;;;;16.93;100.00;99740.44;5002916;28;20046;-72
2023/09/20 01:56:55;;;;;;;5.07;2.25;;;;;;;17.02;100.00;99736.38;4999870;28;20038;-72
2023/09/20 01:59:21;;;;;;;;;;;;;;;17.10;100.00;99740.59;5004895;28;20045;-72
2023/09/20 02:01:48;;;;;;;9.48;3.10;;;;;;;17.01;100.00;99734.72;5004241;28;19956;-72
2023/09/20 02:04:21;;;;;;;15.35;3.15;;;;;;;17.06;100.00;99717.84;4998208;28;20041;-71
2023/09/20 02:06:47;;;;;;;5.93;2.60;;;;;;;17.04;100.00;99706.47;5001566;28;20057;-74
2023/09/20 02:09:13;;;;;;;7.82;2.72;;;;;;;17.04;100.00;99715.41;5004229;28;20034;-73
2023/09/20 02:11:39;;;;;;;9.95;3.10;;;;;;;16.96;100.00;99690.63;5005397;28;20060;-71
2023/09/20 02:14:05;;;;;;;9.27;2.60;;;;;;;17.07;100.00;99709.53;4999186;28;20436;-72
2023/09/20 02:16:32;;;;;;;7.97;2.40;;;;;;;17.10;100.00;99700.16;4998729;28;20261;-72
2023/09/20 02:18:58;;;;;;;8.88;2.60;;;;;;;17.16;100.00;99679.53;4986447;28;20386;-73
2023/09/20 02:21:24;;;;;;;3.92;1.90;;;;;;;17.08;100.00;99678.00;4987769;28;20089;-71
2023/09/20 02:23:56;;;;;;;4.78;2.22;;;;;;;17.13;100.00;99702.38;5004231;28;20034;-72
2023/09/20 02:26:22;;;;;;;8.20;2.80;;;;;;;17.17;100.00;99708.16;5005388;28;20038;-71
2023/09/20 02:28:48;;;;;;;4.38;1.92;;;;;;;17.07;100.00;99709.53;5005200;28;20042;-72
2023/09/20 02:31:13;;;;;;;9.63;2.73;;;;;;;17.04;100.00;99711.84;5005508;28;20026;-71
2023/09/20 02:33:39;;;;;;;12.05;2.10;;;;;;;17.12;100.00;99710.72;5005274;28;20234;-72
2023/09/20 02:36:05;;;;;;;6.30;1.88;;;;;;;17.12;100.00;99703.44;5005145;28;20032;-72
2023/09/20 02:38:30;;;;;;;8.18;2.20;;;;;;;17.04;100.00;99684.91;5003989;28;20421;-72
2023/09/20 02:40:57;;;;;;;4.53;2.25;;;;;;;17.09;100.00;99703.88;5005172;28;20088;-73
2023/09/20 02:43:23;;;;;;;10.27;2.25;;;;;;;17.11;100.00;99709.88;5004188;28;20469;-72
2023/09/20 02:45:49;;;;;;;9.60;3.00;;;;;;;17.07;100.00;99696.06;5003668;28;20135;-71
2023/09/20 02:48:14;;;;;;;8.75;2.40;;;;;;;17.15;100.00;99697.59;4995721;28;20408;-71
2023/09/20 02:50:44;;;;;;;8.30;2.50;;;;;;;17.01;100.00;99694.25;4998420;28;20022;-71
2023/09/20 02:53:09;;;;;;;7.63;2.53;;;;;;;17.11;100.00;99723.38;5003374;28;20280;-72
2023/09/20 02:55:35;;;;;;;7.57;2.37;;;;;;;17.07;100.00;99697.94;5003687;28;20033;-71
2023/09/20 02:58:00;;;;;;;7.57;2.05;;;;;;;17.09;100.00;99720.91;4987764;28;20504;-72
2023/09/20 03:00:30;;;;;;;4.88;1.65;;;;;;;17.07;100.00;99724.91;4997337;28;20037;-73
2023/09/20 03:02:57;;;;;;;4.32;2.03;;;;;;;17.07;100.00;99733.81;4999260;28;20041;-74
2023/09/20 03:05:34;;;;;;;6.22;2.10;;;;;;;17.10;100.00;99751.41;5000837;28;20069;-74
2023/09/20 03:08:10;;;;;;;10.65;2.03;;;;;;;17.04;100.00;99761.25;4997854;28;20760;-75
2023/09/20 03:10:38;;;;;;;7.72;2.15;;;;;;;17.02;100.00;99757.09;5005111;28;20120;-73
2023/09/20 03:13:05;;;;;;;10.85;2.70;;;;;;;17.04;100.00;99788.19;4987401;28;20062;-73
2023/09/20 03:15:32;;;;;;;6.68;1.90;;;;;;;17.05;100.00;99826.78;5000196;28;20027;-72
2023/09/20 03:18:00;;;;;;;10.05;2.10;;;;;;;17.02;100.00;99817.25;4997161;28;20073;-72
2023/09/20 03:20:26;;;;;;;4.63;2.30;;;;;;;17.01;100.00;99822.88;4985322;28;20031;-71
2023/09/20 03:23:05;;;;;;;15.85;2.50;;;;;;;16.91;100.00;99795.63;5000928;28;20030;-72
2023/09/20 03:25:36;;;;;;;6.28;2.05;;;;;;;16.94;100.00;99814.88;4999981;28;20057;-71
2023/09/20 03:28:08;;;;;;;5.30;2.20;;;;;;;16.89;100.00;99849.78;4985376;28;20994;-73
2023/09/20 03:30:37;;;;;;;7.00;2.50;;;;;;;16.84;100.00;99866.63;5001246;28;20030;-72
2023/09/20 03:33:04;;;;;;;10.80;2.58;;;;;;;16.90;100.00;99858.69;4990283;28;20033;-71
2023/09/20 03:35:29;;;;;;;9.63;2.55;;;;;;;16.82;100.00;99855.25;4988471;28;20104;-71
2023/09/20 03:37:55;;;;;;;10.70;2.50;;;;;;;16.81;100.00;99839.28;5004327;28;20517;-72
2023/09/20 03:40:22;;;;;;;8.05;2.03;;;;;;;16.83;100.00;99854.22;5007183;28;20116;-71
2023/09/20 03:42:52;;;;;;;8.27;2.38;;;;;;;16.84;100.00;99863.13;5006944;28;20060;-72
2023/09/20 03:45:20;;;;;;;14.85;2.83;;;;;;;16.87;100.00;99878.81;5004051;28;20748;-74
2023/09/20 03:47:53;;;;;;;7.43;2.35;;;;;;;16.86;100.00;99864.53;5006714;28;20107;-71
2023/09/20 03:50:21;;;;;;;7.03;2.03;;;;;;;16.75;100.00;99886.81;5007085;28;20036;-72
2023/09/20 03:52:47;;;;;;;6.15;1.83;;;;;;;16.80;100.00;99880.78;5006784;28;20281;-72
2023/09/20 03:55:13;;;;;;;11.35;2.90;;;;;;;16.85;100.00;99873.66;5006506;28;20041;-73
2023/09/20 03:57:39;;;;;;;;;;;;;;;16.86;100.00;99879.88;5007078;28;20034;-71
2023/09/20 04:00:07;;;;;;;10.27;2.33;;;;;;;16.79;100.00;99895.31;5006450;28;19920;-73
2023/09/20 04:02:38;;;;;;;7.55;2.78;;;;;;;16.79;100.00;99896.13;5007890;28;20030;-71
2023/09/20 04:05:10;;;;;;;5.13;1.92;;;;;;;16.81;100.00;99914.75;5006250;28;20033;-72
2023/09/20 04:07:37;;;;;;;4.90;2.28;;;;;;;16.82;100.00;99922.63;5006369;28;20400;-71
2023/09/20 04:10:03;;;;;;;9.40;3.05;;;;;;;16.86;100.00;99925.72;5007436;28;20394;-74
2023/09/20 04:12:28;;;;;;;8.10;2.67;;;;;;;16.77;100.00;99914.34;4999585;28;20041;-71
2023/09/20 04:14:54;;;;;;;5.47;2.78;;;;;;;16.79;100.00;99923.09;5006197;28;20034;-74
2023/09/20 04:17:25;;;;;;;6.90;2.70;;;;;;;16.86;100.00;99923.03;5006276;28;20034;-71
2023/09/20 04:19:51;;;;;;;5.78;2.38;;;;;;;16.90;100.00;99916.09;5003082;28;20034;-73
2023/09/20 04:22:17;;;;;;;8.80;2.28;;;;;;;16.90;100.00;99913.41;4999761;28;20195;-73
2023/09/20 04:24:42;;;;;;;5.17;2.57;;;;;;;16.86;100.00;99907.66;4999203;28;20038;-72
2023/09/20 04:27:08;;;;;;;9.17;2.53;;;;;;;16.86;100.00;99904.16;5005725;28;20034;-72
2023/09/20 04:29:35;;;;;;;11.45;3.17;;;;;;;16.91;100.00;99900.78;5006050;28;20053;-71
2023/09/20 04:32:01;;;;;;;5.82;2.20;;;;;;;16.85;100.00;99854.78;4990266;28;20030;-73
2023/09/20 04:34:28;;;;;;;5.35;2.63;;;;;;;16.88;100.00;99864.31;4999118;28;20041;-74
2023/09/20 04:36:54;;;;;;;4.20;2.10;;;;;;;16.83;100.00;99891.94;4989419;28;20453;-71
2023/09/20 04:39:24;;;;;;;6.97;2.40;;;;;;;16.86;100.00;99913.06;4999808;28;20064;-72
2023/09/20 04:41:50;;;;;;;12.77;3.38;;;;;;;16.84;100.00;99888.19;4999310;28;20281;-72
2023/09/20 04:44:16;;;;;;;4.18;2.13;;;;;;;16.93;100.00;99901.34;5005744;28;20018;-72
2023/09/20 04:46:42;;;;;;;;;;;;;;;16.91;100.00;99892.69;5004112;28;20053;-71
2023/09/20 04:49:10;;;;;;;9.93;2.45;;;;;;;16.86;100.00;99874.50;4986133;28;19913;-71
2023/09/20 04:51:36;;;;;;;8.23;2.40;;;;;;;16.86;100.00;99880.72;4991296;28;20126;-71
2023/09/20 04:54:02;;;;;;;;;;;;;;;16.81;100.00;99853.59;4994645;28;20133;-73
2023/09/20 04:56:28;;;;;;;10.55;3.20;;;;;;;16.88;100.00;99875.09;4986072;28;19918;-72
2023/09/20 04:58:54;;;;;;;9.43;3.13;;;;;;;16.81;100.00;99837.44;4985727;28;20019;-72
2023/09/20 05:01:19;;;;;;;7.07;2.53;;;;;;;16.90;100.00;99870.28;4995819;28;20044;-73
2023/09/20 05:03:50;;;;;;;9.38;2.70;;;;;;;16.91;100.00;99863.03;4986080;28;20022;-72
2023/09/20 05:06:19;;;;;;;11.60;2.67;;;;;;;16.88;100.00;99837.34;4987255;28;20062;-74
2023/09/20 05:08:45;;;;;;;10.60;2.83;;;;;;;16.82;100.00;99836.38;4989326;28;20027;-72
2023/09/20 05:11:13;;;;;;;4.68;2.22;;;;;;;16.81;100.00;99834.75;4993030;28;20519;-72
2023/09/20 05:13:40;;;;;;;6.00;2.67;;;;;;;16.90;100.00;99837.13;4990904;28;20066;-72
2023/09/20 05:16:07;;;;;;;6.82;2.53;;;;;;;16.92;100.00;99840.41;4988501;28;20105;-72
2023/09/20 05:18:32;;;;;;;12.80;3.53;;;;;;;16.90;100.00;99821.75;4987498;28;20065;-70
2023/09/20 05:20:58;;;;;;;4.93;2.57;;;;;;;16.95;100.00;99823.78;4984913;28;20410;-72
2023/09/20 05:23:24;;;;;;;8.75;2.53;;;;;;;16.93;100.00;99815.09;4981606;28;20113;-72
2023/09/20 05:25:50;;;;;;;;;;;;;;;17.02;100.00;99809.19;4982084;28;20723;-73
2023/09/20 05:28:15;;;;;;;10.13;2.83;;;;;;;17.00;100.00;99803.19;4982090;28;19914;-73
2023/09/20 05:30:44;;;;;;;14.53;3.37;;;;;;;16.98;100.00;99801.78;4985024;28;20025;-71
2023/09/20 05:33:11;;;;;;;11.68;3.92;;;;;;;17.08;100.00;99808.25;4974571;28;20486;-72
2023/09/20 05:35:39;;;;;;;11.55;2.40;;;;;;;17.05;100.00;99799.81;4983940;28;20045;-72
2023/09/20 05:38:06;;;;;;;7.75;3.72;;;;;;;17.04;100.00;99806.22;4986160;28;20021;-72
2023/09/20 05:40:33;;;;;;;8.77;3.55;;;;;;;16.98;100.00;99791.78;4986325;28;20023;-73
2023/09/20 05:42:58;;;;;;;9.15;3.05;;;;;;;16.97;100.00;99759.66;4986121;28;20033;-72
2023/09/20 05:45:26;;;;;;;8.53;2.67;;;;;;;17.12;100.00;99773.56;4985812;28;20382;-72
2023/09/20 05:47:51;;;;;;;8.02;3.17;;;;;;;17.11;100.00;99761.13;4979960;28;20034;-72
2023/09/20 05:50:33;;;;;;;13.20;2.75;;;;;;;17.14;100.00;99749.91;4985823;28;20081;-71
2023/09/20 05:52:59;;;;;;;9.98;2.25;;;;;;;17.11;100.00;99720.66;4988143;28;20249;-73
2023/09/20 05:55:25;;;;;;;8.70;2.22;;;;;;;17.06;100.00;99723.25;4997014;28;20025;-73
2023/09/20 05:57:50;;;;;;;5.00;2.92;;;;;;;17.13;100.00;99712.34;4995416;28;20413;-72
2023/09/20 06:00:16;;;;;;;10.20;2.30;;;;;;;17.18;100.00;99699.81;4995391;28;20034;-72
2023/09/20 06:02:43;;;;;;;11.63;2.67;;;;;;;17.14;100.00;99674.38;4992044;28;20453;-72
2023/09/20 06:05:11;;;;;;;11.80;3.33;;;;;;;17.23;100.00;99678.38;4997167;28;20049;-72
2023/09/20 06:07:37;;;;;;;14.45;2.92;;;;;;;17.17;100.00;99682.00;4997227;28;20041;-73
2023/09/20 06:10:04;;;;;;;7.40;2.80;;;;;;;17.20;100.00;99689.63;4995052;28;20254;-72
2023/09/20 06:12:30;;;;;;;6.70;2.38;;;;;;;17.18;100.00;99653.97;4991339;28;20061;-73
2023/09/20 06:14:55;;;;;;;4.15;2.20;;;;;;;17.23;100.00;99666.75;4998578;28;20060;-72
2023/09/20 06:17:21;;;;;;;7.47;2.40;;;;;;;17.29;100.00;99701.72;4998460;28;20084;-72
2023/09/20 06:19:46;;;;;;;5.03;2.47;;;;;;;17.39;100.00;99674.16;4997215;28;20045;-72
2023/09/20 06:22:13;;;;;;;6.73;2.93;;;;;;;17.44;100.00;99651.88;4997118;28;20030;-72
2023/09/20 06:24:38;;;;;;;7.88;2.60;;;;;;;17.39;100.00;99635.56;4998041;28;20064;-72
2023/09/20 06:27:04;;;;;;;7.13;2.73;;;;;;;17.41;100.00;99633.47;4997747;28;20018;-73
2023/09/20 06:29:29;;;;;;;6.97;3.17;;;;;;;17.40;100.00;99650.72;4998042;28;20531;-72
2023/09/20 06:31:54;;;;;;;6.57;2.93;;;;;;;17.45;100.00;99637.34;4998343;28;20118;-72
2023/09/20 06:34:22;;;;;;;5.90;2.20;;;;;;;17.40;100.00;99602.97;4998103;28;20038;-73
2023/09/20 06:36:47;;;;;;;8.27;2.55;;;;;;;17.48;100.00;99612.59;4995357;28;20044;-71
2023/09/20 06:39:13;;;;;;;10.45;2.92;;;;;;;17.45;100.00;99611.19;4996975;28;20042;-72
2023/09/20 06:41:42;;;;;;;9.13;2.60;;;;;;;17.58;100.00;99615.50;4996418;28;20034;-73
2023/09/20 06:44:07;;;;;;;6.53;2.42;;;;;;;17.64;100.00;99606.47;4998710;28;20026;-72
2023/09/20 06:46:34;;;;;;;9.70;2.90;;;;;;;17.68;100.00;99586.06;5000503;28;20428;-72
2023/09/20 06:48:59;;;;;;;6.82;2.50;;;;;;;17.66;100.00;99576.56;4993636;28;20469;-71
2023/09/20 06:51:25;;;;;;;4.57;2.27;;;;;;;17.75;100.00;99550.84;4997927;28;20033;-72
2023/09/20 06:53:50;;;;;;;8.07;2.73;;;;;;;17.73;100.00;99552.94;4998612;28;20105;-72
2023/09/20 06:56:17;;;;;;;7.50;2.30;;;;;;;17.59;100.00;99503.00;4997056;28;20273;-74
2023/09/20 06:58:45;;;;;;;10.40;2.97;;;;;;;17.52;100.00;99543.59;4998752;28;20097;-74
2023/09/20 07:01:10;;;;;;;5.53;2.03;;;;;;;17.58;100.00;99575.03;5003372;28;20489;-72
2023/09/20 07:03:36;;;;;;;6.88;2.90;;;;;;;17.57;100.00;99562.59;4996606;28;20077;-72
2023/09/20 07:06:05;;;;;;;6.40;2.78;;;;;;;17.54;100.00;99557.69;4998222;28;20073;-72
2023/09/20 07:08:31;;;;;;;8.75;2.13;;;;;;;17.71;100.00;99593.66;5008055;28;20485;-72
2023/09/20 07:10:57;;;;;;;11.13;2.83;;;;;;;17.82;100.00;99561.53;4997747;28;20034;-71
2023/09/20 07:13:26;;;;;;;9.93;2.30;;;;;;;17.85;100.00;99525.97;4996759;28;20044;-71
2023/09/20 07:15:54;;;;;;;10.52;2.28;;;;;;;17.94;100.00;99519.13;4995211;28;20050;-72
2023/09/20 07:18:20;;;;;;;5.10;2.30;;;;;;;17.96;100.00;99517.00;4995982;28;20037;-72
2023/09/20 07:20:45;;;;;;;7.50;2.10;;;;;;;17.87;100.00;99486.03;4984519;28;20038;-72
2023/09/20 07:23:15;;;;;;;13.30;4.67;;;;;;;18.00;100.00;99534.34;4992901;28;20052;-72
2023/09/20 07:25:40;;;;;;;9.77;2.22;;;;;;;18.13;100.00;99528.66;4996917;28;20022;-71
2023/09/20 07:28:07;;;;;;;8.02;2.17;;;;;;;18.12;100.00;99500.03;4992298;28;20969;-72
2023/09/20 07:30:39;;;;;;;6.78;2.28;;;;;;;18.26;100.00;99505.09;4995716;28;20030;-71
2023/09/20 07:33:06;;;;;;;6.72;1.92;;;;;;;18.28;100.00;99438.13;4985119;28;20032;-72
2023/09/20 07:35:38;;;;;;;5.80;2.85;;;;;;;18.12;100.00;99464.06;4987023;28;20133;-71
2023/09/20 07:38:12;;;;;;;4.60;2.58;;;;;;;18.23;100.00;99468.59;4997567;28;20040;-72
2023/09/20 07:40:40;;;;;;;8.43;2.53;;;;;;;18.47;100.00;99438.72;4984766;28;20045;-72
2023/09/20 07:43:06;;;;;;;6.22;2.72;;;;;;;18.33;100.00;99398.53;4977780;28;20473;-73
2023/09/20 07:45:41;;;;;;;6.45;2.55;;;;;;;18.13;100.00;99417.91;4989541;28;20995;-72
2023/09/20 07:48:12;;;;;;;9.23;2.60;;;;;;;18.22;100.00;99466.97;4984445;28;20058;-70
2023/09/20 07:50:57;;;;;;;11.57;2.88;;;;;;;18.03;100.00;99452.84;4982450;28;20420;-71
2023/09/20 07:53:25;;;;;;;5.32;2.50;;;;;;;18.21;100.00;99518.53;4986880;28;20049;-71
2023/09/20 07:56:00;;;;;;;8.48;2.40;;;;;;;18.17;100.00;99487.66;4981389;28;20026;-72
2023/09/20 07:58:26;;;;;;;13.55;2.67;;;;;;;17.97;100.00;99480.81;4981057;28;20058;-72
2023/09/20 08:00:55;;;;;;;5.25;1.88;;;;;;;18.08;100.00;99514.25;4982001;28;20089;-71
2023/09/20 08:03:22;;;;;;;5.53;2.72;;;;;;;18.21;100.00;99497.72;4981170;28;20069;-71
2023/09/20 08:05:48;;;;;;;7.72;2.40;;;;;;;18.56;100.00;99532.66;4986454;28;20428;-71
2023/09/20 08:08:14;;;;;;;5.78;2.50;;;;;;;18.53;100.00;99498.00;4980969;28;20022;-72
2023/09/20 08:10:41;;;;;;;7.85;2.78;;;;;;;18.65;100.00;99480.91;4981142;28;20053;-74
2023/09/20 08:13:07;;;;;;;9.23;2.25;;;;;;;18.84;100.00;99384.97;4987689;28;20045;-72
2023/09/20 08:15:39;;;;;;;4.78;2.42;;;;;;;18.62;100.00;99332.75;4995622;28;20029;-72
2023/09/20 08:20:48;;;;;;;4.93;2.10;;;;;;;19.04;100.00;99359.28;4992256;28;20030;-73
2023/09/20 09:01:37;;;;;;;11.85;2.67;;;;;;;19.49;100.00;99341.91;4991692;28;20040;-74
2023/09/20 09:04:09;;;;;;;9.82;4.53;;;;;;;19.28;100.00;99314.63;4990137;28;20034;-74
2023/09/20 09:06:35;;;;;;;8.45;3.00;;;;;;;18.94;100.00;99279.66;4997278;28;20034;-74
2023/09/20 09:09:02;;;;;;;5.27;2.20;;;;;;;18.73;100.00;99385.84;4990547;28;20443;-74
2023/09/20 09:11:28;;;;;;;4.95;2.20;;;;;;;18.72;100.00;99416.66;4994524;28;20026;-73
2023/09/20 09:14:00;;;;;;;7.65;2.97;;;;;;;18.65;100.00;99438.47;4991296;28;20038;-74
2023/09/20 09:16:31;;;;;;;7.10;2.97;;;;;;;18.68;100.00;99456.06;4994064;28;20029;-74
2023/09/20 09:18:56;;;;;;;8.93;2.40;;;;;;;18.67;100.00;99452.56;4991241;28;20563;-74
2023/09/20 09:21:22;;;;;;;4.60;2.80;;;;;;;18.88;100.00;99432.06;4997475;28;20052;-70
2023/09/20 09:23:48;;;;;;;;;;;;;;;19.28;100.00;99458.03;4998696;28;20077;-71
2023/09/20 09:26:13;;;;;;;7.28;2.60;;;;;;;19.15;100.00;99342.06;4995879;28;19918;-72
2023/09/20 09:28:45;;;;;;;6.32;2.53;;;;;;;18.97;100.00;99441.41;4995159;28;20449;-72
2023/09/20 09:31:10;;;;;;;8.60;2.70;;;;;;;18.90;100.00;99451.56;4995067;28;20034;-74
2023/09/20 09:33:39;;;;;;;8.03;2.33;;;;;;;19.07;100.00;99526.47;4996331;28;20079;-75
2023/09/20 09:36:05;;;;;;;6.63;2.50;;;;;;;18.96;100.00;99496.56;4994527;28;20281;-74
2023/09/20 09:38:35;;;;;;;8.48;2.65;;;;;;;19.08;100.00;99522.66;4996069;28;20022;-74
2023/09/20 09:41:02;;;;;;;5.53;2.92;;;;;;;19.10;100.00;99461.03;4996388;28;20038;-73
2023/09/20 09:43:31;;;;;;;11.13;3.00;;;;;;;19.79;100.00;99539.91;4997416;28;20026;-71
2023/09/20 09:46:09;;;;;;;11.13;3.45;;;;;;;20.25;100.00;99517.91;4990817;28;20057;-74
2023/09/20 09:48:37;;;;;;;11.68;2.65;;;;;;;20.98;100.00;99355.50;4996099;28;20429;-74
2023/09/20 09:51:05;;;;;;;9.18;2.30;;;;;;;21.58;100.00;99135.22;4990500;28;20018;-74
2023/09/20 09:53:34;;;;;;;6.07;2.33;;;;;;;21.92;100.00;98984.09;4997016;28;20448;-71
2023/09/20 09:56:03;;;;;;;6.63;2.38;;;;;;;22.11;100.00;98923.66;4994082;28;20038;-72
2023/09/20 09:58:29;;;;;;;7.80;2.80;;;;;;;22.39;100.00;98864.22;4990372;28;20033;-72
2023/09/20 10:01:05;;;;;;;6.50;2.50;;;;;;;22.75;100.00;98772.19;4999196;28;20038;-76
2023/09/20 10:03:32;;;;;;;6.93;2.45;;;;;;;22.40;100.00;98703.53;4990857;28;20323;-72
2023/09/20 10:06:15;;;;;;;6.28;2.47;;;;;;;21.99;100.00;98580.91;4993349;28;20022;-71
2023/09/20 10:08:42;;;;;;;6.25;2.25;;;;;;;21.24;100.00;98641.88;4993254;28;20030;-71
2023/09/20 10:11:08;;;;;;;6.45;2.45;;;;;;;20.95;100.00;98810.78;4993884;28;20030;-72
2023/09/20 10:13:39;;;;;;;5.88;2.22;;;;;;;21.16;100.00;98998.72;4995795;28;20045;-71
2023/09/20 10:16:06;;;;;;;3.67;2.30;;;;;;;21.07;100.00;99071.75;4993327;28;20026;-71
2023/09/20 10:18:33;;;;;;;4.97;1.98;;;;;;;21.05;100.00;99086.66;4995601;28;20049;-72
2023/09/20 10:21:10;;;;;;;6.43;2.40;;;;;;;21.24;100.00;99114.88;4989248;28;20475;-71
2023/09/20 10:23:37;;;;;;;4.53;2.50;;;;;;;20.97;100.00;99044.59;4993081;28;20040;-71
2023/09/20 10:26:11;;;;;;;6.85;3.13;;;;;;;20.80;100.00;99166.13;4989229;28;20038;-71
2023/09/20 10:28:40;;;;;;;8.88;2.55;;;;;;;20.44;100.00;99209.38;4993609;28;20037;-72
2023/09/20 10:31:05;;;;;;;5.45;2.30;;;;;;;20.36;100.00;99226.94;4992817;28;20026;-72
2023/09/20 10:33:45;;;;;;;4.90;1.80;;;;;;;20.81;100.00;99363.00;4992105;28;20468;-72
2023/09/20 10:36:23;;;;;;;5.82;1.70;;;;;;;20.59;100.00;99236.56;4993735;28;20269;-71
2023/09/20 10:39:09;;;;;;;4.57;1.77;;;;;;;20.33;100.00;99199.56;4989693;28;20532;-71
2023/09/20 10:41:42;;;;;;;4.95;2.47;;;;;;;20.14;100.00;99150.44;4990694;28;20431;-70
2023/09/20 10:44:08;;;;;;;5.25;1.30;;;;;;;20.33;100.00;99325.03;4997410;28;20034;-71
2023/09/20 10:46:36;;;;;;;5.70;1.98;;;;;;;19.92;100.00;99197.41;4998841;28;20022;-70
2023/09/20 10:49:03;;;;;;;5.63;2.15;;;;;;;19.90;100.00;99296.25;4996527;28;20042;-72
2023/09/20 10:51:42;;;;;;;7.43;2.17;;;;;;;19.99;100.00;99378.69;4999710;28;20034;-73
2023/09/20 10:54:20;;;;;;;3.25;1.60;;;;;;;19.89;100.00;99343.38;4996819;28;20030;-73
2023/09/20 10:56:51;;;;;;;9.32;1.70;;;;;;;19.97;100.00;99323.94;4993716;28;20023;-72
2023/09/20 10:59:18;;;;;;;4.30;1.55;;;;;;;19.99;100.00;99375.97;5001609;28;20049;-74
2023/09/20 11:01:53;;;;;;;5.40;1.90;;;;;;;20.17;100.00;99464.19;4990466;28;20301;-74
2023/09/20 11:04:19;;;;;;;3.38;1.42;;;;;;;20.31;100.00;99367.84;4997379;28;20030;-71
2023/09/20 11:06:47;;;;;;;3.38;1.70;;;;;;;20.44;100.00;99399.91;4996910;28;20385;-71
2023/09/20 11:09:13;;;;;;;5.25;1.73;;;;;;;20.23;100.00;99404.38;4993683;28;20409;-70
2023/09/20 11:11:39;;;;;;;10.65;2.55;;;;;;;20.37;100.00;99420.16;4997270;28;20060;-71
2023/09/20 11:14:06;;;;;;;4.40;1.65;;;;;;;20.49;100.00;99374.75;4996238;28;20026;-71
2023/09/20 11:16:31;;;;;;;5.88;2.15;;;;;;;20.57;100.00;99303.78;4998461;28;20026;-71
2023/09/20 11:18:57;;;;;;;5.82;1.60;;;;;;;21.02;100.00;99416.28;4999009;28;20033;-72
2023/09/20 11:21:24;;;;;;;5.07;2.28;;;;;;;21.24;100.00;99325.75;4998281;28;20068;-71
2023/09/20 11:23:50;;;;;;;8.30;1.85;;;;;;;21.25;100.00;99338.22;4996068;28;20034;-71
2023/09/20 11:26:26;;;;;;;6.93;2.08;;;;;;;21.59;100.00;99356.81;4994761;28;20027;-71
2023/09/20 11:28:52;;;;;;;4.88;1.48;;;;;;;21.75;100.00;99056.97;4994028;28;20561;-73
2023/09/20 11:31:36;;;;;;;;;;;;;;;21.43;100.00;99035.63;4994390;28;20495;-73
2023/09/20 11:34:03;;;;;;;11.35;2.40;;;;;;;21.61;100.00;99091.22;4993024;28;19918;-72
2023/09/20 11:36:35;;;;;;;4.25;1.80;;;;;;;21.70;100.00;99117.56;4991677;28;20022;-71
2023/09/20 11:39:00;;;;;;;3.72;1.30;;;;;;;21.81;100.00;99115.63;4995023;28;20117;-71
2023/09/20 11:41:26;;;;;;;3.88;2.00;;;;;;;22.03;100.00;98929.69;4997870;28;20477;-71
2023/09/20 11:43:58;;;;;;;2.40;1.20;;;;;;;21.69;100.00;99037.16;4995781;28;20041;-72
2023/09/20 11:46:27;;;;;;;3.97;2.20;;;;;;;21.46;100.00;98911.00;4993499;28;20121;-71
2023/09/20 11:48:58;;;;;;;7.30;2.45;;;;;;;21.31;100.00;98916.47;4994692;28;20485;-71
2023/09/20 11:51:24;;;;;;;6.20;1.60;;;;;;;21.39;100.00;99056.22;4995862;28;20087;-71
2023/09/20 11:53:51;;;;;;;3.53;1.70;;;;;;;21.29;100.00;99112.16;4998585;28;20492;-71
2023/09/20 11:56:32;;;;;;;6.43;1.73;;;;;;;21.15;100.00;99075.00;4996503;28;20477;-72
2023/09/20 11:59:05;;;;;;;3.17;1.70;;;;;;;21.38;100.00;99161.28;4991792;28;20042;-72
2023/09/20 12:01:33;;;;;;;4.47;1.50;;;;;;;21.48;100.00;99195.78;4991655;28;20026;-72
2023/09/20 12:04:01;;;;;;;3.72;1.45;;;;;;;21.19;100.00;99163.72;4991267;28;20073;-72
2023/09/20 12:06:26;;;;;;;3.88;1.65;;;;;;;21.08;100.00;99107.81;4993967;28;20501;-73
2023/09/20 12:08:53;;;;;;;4.03;1.70;;;;;;;21.36;100.00;99285.59;4994449;28;20066;-72
2023/09/20 12:11:19;;;;;;;2.65;1.27;;;;;;;21.73;100.00;99194.97;4992744;28;20030;-70